Terminal Aerodrome Forecast
Issued by NWS

Home | Current Version | Previous Version | Text Only | Print | Product List | Glossary On
Versions: 1 2 3 4 5 6 7 8 9 10 11 12 13 14 15
682
FTUS42 KMLB 180527
TAFLEE
TAF
KLEE 180527Z 1806/1906 01008KT P6SM SCT030 BKN100
      TEMPO 1806/1810 BKN025
     FM181400 03010KT P6SM SCT025 BKN100
     FM181800 05013G20KT P6SM SCT025 BKN100
     FM190000 02009KT P6SM FEW030 SCT050=

USA.gov is the U.S. government's official web portal to all federal, state and local government web resources and services.